Time;durP1;ratioP1;P1;durP2;ratioP2;P2;SDS_P1;SDS_P2;PMS_P1;PMS_P2;Temp;Humidity;BMP_temperature;BMP_pressure;BME280_temperature;BME280_humidity;BME280_pressure;Samples;Min_cycle;Max_cycle;Signal;HPM_P1;HPM_P2
2022/06/10 00:00:26;;;;;;;;;4.67;3.33;;;;;20.45;51.30;101690.41;5034911;28;45431;-79
2022/06/10 00:02:53;;;;;;;;;7.33;4.00;;;;;20.44;50.86;101683.31;5019900;28;45459;-74
2022/06/10 00:05:22;;;;;;;;;3.00;3.00;;;;;20.24;50.99;101664.09;5032302;28;45549;-76
2022/06/10 00:07:48;;;;;;;;;7.67;5.00;;;;;20.07;50.86;101624.78;5038161;28;45406;-74
2022/06/10 00:10:16;;;;;;;;;5.67;3.67;;;;;20.40;51.17;101690.06;5029339;28;45794;-76
2022/06/10 00:12:42;;;;;;;;;4.00;4.00;;;;;20.10;51.68;101643.31;5019958;28;45435;-76
2022/06/10 00:15:08;;;;;;;;;6.00;4.00;;;;;20.20;51.45;101656.50;5037084;28;45508;-75
2022/06/10 00:17:34;;;;;;;;;4.00;3.33;;;;;19.49;51.57;101537.28;5040140;28;45506;-79
2022/06/10 00:20:00;;;;;;;;;6.33;5.33;;;;;19.06;51.20;101469.59;5026289;28;47288;-77
2022/06/10 00:22:25;;;;;;;;;4.00;4.00;;;;;20.10;51.42;101646.00;5027917;28;45760;-76
2022/06/10 00:24:51;;;;;;;;;5.00;3.67;;;;;20.22;51.47;101666.13;5036349;28;45568;-74
2022/06/10 00:27:18;;;;;;;;;4.00;4.00;;;;;20.34;51.85;101690.81;5038102;28;45490;-76
2022/06/10 00:29:43;;;;;;;;;8.33;6.00;;;;;20.31;51.77;101691.19;5016703;28;47309;-78
2022/06/10 00:32:09;;;;;;;;;6.67;6.67;;;;;20.12;51.98;101660.16;5018131;28;45928;-79
2022/06/10 00:34:35;;;;;;;;;9.00;7.00;;;;;20.03;51.75;101636.97;5024536;28;45507;-75
2022/06/10 00:37:03;;;;;;;;;6.67;4.67;;;;;20.23;51.83;101672.38;5026928;28;45588;-78
2022/06/10 00:39:29;;;;;;;;;6.00;5.00;;;;;20.23;52.09;101684.00;5036897;28;47810;-75
2022/06/10 00:41:55;;;;;;;;;7.00;7.00;;;;;20.07;52.08;101665.28;5024299;28;45610;-73
2022/06/10 00:44:41;;;;;;;;;9.00;6.33;;;;;20.24;52.05;101683.00;5025751;28;45289;-78
2022/06/10 00:47:32;;;;;;;;;9.33;4.67;;;;;20.22;52.06;101686.88;5017249;28;45540;-78
2022/06/10 00:50:25;;;;;;;;;5.00;4.00;;;;;20.20;52.29;101681.66;5029284;28;45689;-75
2022/06/10 00:52:59;;;;;;;;;6.00;4.67;;;;;20.19;52.35;101677.28;5023969;28;45313;-76
2022/06/10 00:55:29;;;;;;;;;6.00;6.00;;;;;19.50;52.47;101584.81;5031901;28;45389;-76
2022/06/10 00:58:19;;;;;;;;;6.00;5.00;;;;;19.74;52.45;101606.19;5028778;28;45517;-75
2022/06/10 01:00:44;;;;;;;;;9.00;6.67;;;;;20.02;52.31;101656.84;5020034;28;45497;-77
2022/06/10 01:03:10;;;;;;;;;4.33;4.33;;;;;18.78;52.38;101449.63;5021316;28;45483;-76
2022/06/10 01:05:35;;;;;;;;;4.00;4.00;;;;;20.02;52.24;101659.56;5020371;28;45199;-76
2022/06/10 01:08:08;;;;;;;;;8.67;5.00;;;;;19.42;52.24;101566.84;5032351;28;45563;-77
2022/06/10 01:11:07;;;;;;;;;5.00;4.00;;;;;18.04;52.40;101338.06;5030618;28;45422;-77
2022/06/10 01:14:13;;;;;;;;;3.00;3.00;;;;;19.97;52.70;101670.06;5027109;28;45520;-76
2022/06/10 01:17:05;;;;;;;;;4.00;3.00;;;;;19.94;52.62;101656.94;5029523;28;45432;-74
2022/06/10 01:19:42;;;;;;;;;4.33;3.67;;;;;19.82;52.84;101653.00;5028575;28;45553;-75
2022/06/10 01:22:35;;;;;;;;;4.67;4.00;;;;;19.89;52.79;101664.75;5028089;28;46748;-76
2022/06/10 01:25:30;;;;;;;;;5.67;4.33;;;;;19.07;53.16;101540.53;5020640;28;45345;-75
2022/06/10 01:28:14;;;;;;;;;5.00;5.00;;;;;19.82;53.00;101671.91;5029288;28;45420;-76
2022/06/10 01:31:05;;;;;;;;;3.33;3.33;;;;;19.77;53.41;101672.44;5028466;28;45499;-76
2022/06/10 01:33:58;;;;;;;;;4.33;4.33;;;;;19.74;53.33;101667.41;5027977;28;46451;-75
2022/06/10 01:36:57;;;;;;;;;6.00;5.67;;;;;19.73;53.35;101663.03;5030558;28;45513;-76
2022/06/10 01:39:40;;;;;;;;;4.33;4.33;;;;;19.72;53.23;101664.91;5033624;28;45514;-75
2022/06/10 01:42:28;;;;;;;;;3.00;3.00;;;;;19.68;53.58;101665.47;5025242;28;45571;-74
2022/06/10 01:44:54;;;;;;;;;5.67;3.33;;;;;19.65;53.74;101663.97;5018445;28;46167;-76
2022/06/10 01:47:29;;;;;;;;;3.00;3.00;;;;;19.30;53.62;101613.28;5020042;28;45299;-77
2022/06/10 01:50:07;;;;;;;;;5.00;4.00;;;;;18.69;53.76;101512.66;5025195;28;45238;-75
2022/06/10 01:52:42;;;;;;;;;2.67;2.67;;;;;19.46;53.83;101650.94;5016800;28;45403;-77
2022/06/10 01:55:13;;;;;;;;;6.00;6.00;;;;;19.56;54.09;101661.50;5027692;28;46643;-77
2022/06/10 01:57:56;;;;;;;;;4.00;4.00;;;;;19.26;53.65;101617.38;5028599;28;45606;-74
2022/06/10 02:00:25;;;;;;;;;4.00;4.00;;;;;19.25;53.63;101605.75;5031169;28;45530;-76
2022/06/10 02:03:15;;;;;;;;;5.00;4.33;;;;;19.63;53.85;101671.41;5036289;28;45550;-77
2022/06/10 02:05:47;;;;;;;;;4.33;4.33;;;;;19.21;53.69;101606.25;5026553;28;45694;-76
2022/06/10 02:08:18;;;;;;;;;3.00;3.00;;;;;18.98;53.64;101580.16;5036994;28;46172;-75
2022/06/10 02:10:54;;;;;;;;;4.00;4.00;;;;;19.13;53.67;101605.31;5025395;28;45386;-75
2022/06/10 02:13:27;;;;;;;;;4.67;4.33;;;;;18.99;53.71;101580.97;5016300;28;45569;-74
2022/06/10 02:15:58;;;;;;;;;4.67;2.33;;;;;17.49;53.75;101339.00;5025224;28;46685;-77
2022/06/10 02:18:52;;;;;;;;;4.00;4.00;;;;;19.60;54.08;101676.28;5040210;28;45454;-75
2022/06/10 02:21:31;;;;;;;;;8.33;5.33;;;;;18.77;53.69;101553.84;5012655;28;45408;-75
2022/06/10 02:24:01;;;;;;;;;5.00;5.00;;;;;19.39;53.63;101631.06;5021920;28;45490;-75
2022/06/10 02:26:31;;;;;;;;;6.67;5.67;;;;;19.27;53.33;101616.34;5028362;28;46636;-76
2022/06/10 02:29:00;;;;;;;;;9.00;7.33;;;;;19.57;53.54;101671.25;5052823;28;46081;-75
2022/06/10 02:31:32;;;;;;;;;4.00;3.67;;;;;19.52;53.72;101669.06;5038541;28;45491;-74
2022/06/10 02:33:59;;;;;;;;;5.00;5.00;;;;;19.44;53.79;101656.50;5022882;28;45512;-74
2022/06/10 02:36:45;;;;;;;;;4.00;4.00;;;;;19.45;53.66;101662.75;5025423;28;46523;-75
2022/06/10 02:39:31;;;;;;;;;3.00;3.00;;;;;19.03;53.24;101604.72;5004315;28;45319;-76
2022/06/10 02:42:08;;;;;;;;;5.33;5.33;;;;;19.46;53.45;101683.28;5020480;28;45451;-75
2022/06/10 02:45:02;;;;;;;;;5.00;5.00;;;;;19.39;53.90;101669.66;5030641;28;45284;-76
2022/06/10 02:47:33;;;;;;;;;4.67;4.67;;;;;19.35;53.93;101681.00;5038534;28;45723;-74
2022/06/10 02:49:59;;;;;;;;;3.33;3.33;;;;;19.24;53.91;101665.25;5020685;28;45713;-77
2022/06/10 02:52:35;;;;;;;;;7.00;5.67;;;;;18.44;53.83;101538.88;5049648;28;45343;-75
2022/06/10 02:55:02;;;;;;;;;7.67;5.67;;;;;19.34;54.14;101684.72;5019361;28;45428;-74
2022/06/10 03:03:42;;;;;;;;;4.67;4.00;;;;;19.25;54.50;101688.50;5030124;28;45467;-79
2022/06/10 03:06:16;;;;;;;;;2.67;2.67;;;;;19.20;54.31;101690.84;5013208;28;45360;-75
2022/06/10 03:08:53;;;;;;;;;5.50;4.00;;;;;18.79;54.54;101629.09;5027802;28;46480;-76
2022/06/10 03:11:32;;;;;;;;;6.00;5.00;;;;;18.87;54.41;101642.53;5018664;28;45517;-75
2022/06/10 03:14:22;;;;;;;;;3.00;2.00;;;;;19.15;54.47;101683.31;5018094;28;45541;-77
2022/06/10 03:16:59;;;;;;;;;2.00;2.00;;;;;19.20;54.50;101688.16;5028282;28;45282;-76
2022/06/10 03:19:36;;;;;;;;;7.00;4.00;;;;;18.66;54.57;101620.75;5033238;28;47783;-76
2022/06/10 03:22:45;;;;;;;;;5.00;3.67;;;;;19.19;54.56;101699.97;5027392;28;45535;-75
2022/06/10 03:25:32;;;;;;;;;5.67;5.67;;;;;19.15;55.04;101694.09;5023399;28;45527;-76
2022/06/10 03:28:13;;;;;;;;;8.67;6.00;;;;;18.86;54.71;101662.41;5025831;28;45526;-76
2022/06/10 03:31:12;;;;;;;;;7.33;4.67;;;;;16.81;54.78;101340.34;5027679;28;46292;-76
2022/06/10 03:33:43;;;;;;;;;6.00;5.00;;;;;18.23;55.02;101571.78;5032845;28;45636;-75
2022/06/10 03:36:15;;;;;;;;;7.67;5.00;;;;;18.89;55.11;101678.22;5025869;28;45358;-75
2022/06/10 03:38:45;;;;;;;;;4.00;4.00;;;;;18.73;55.17;101645.97;5025268;28;45606;-76
2022/06/10 03:41:27;;;;;;;;;6.67;5.00;;;;;18.80;55.48;101673.88;5034959;28;48143;-74
2022/06/10 03:43:55;;;;;;;;;4.00;3.00;;;;;18.97;55.54;101718.59;5025961;28;45387;-77
2022/06/10 03:46:24;;;;;;;;;4.33;4.33;;;;;18.49;55.26;101639.63;5026539;28;45599;-75
2022/06/10 03:48:52;;;;;;;;;4.00;3.67;;;;;18.93;55.54;101705.66;5018910;28;45423;-76
2022/06/10 03:51:19;;;;;;;;;8.33;7.00;;;;;18.31;55.85;101613.97;5026317;28;45238;-74
2022/06/10 03:53:45;;;;;;;;;5.33;5.00;;;;;18.76;56.02;101702.19;5034478;28;45241;-76
2022/06/10 03:56:12;;;;;;;;;8.67;6.33;;;;;18.52;55.91;101678.84;5018485;28;45238;-74
2022/06/10 03:58:38;;;;;;;;;4.00;4.00;;;;;18.71;55.99;101701.88;5018051;28;45222;-77
2022/06/10 04:01:04;;;;;;;;;8.33;6.00;;;;;18.16;56.13;101624.59;5029504;28;47470;-75
2022/06/10 04:03:29;;;;;;;;;4.00;3.00;;;;;18.52;56.51;101690.44;5032961;28;45552;-76
2022/06/10 04:05:55;;;;;;;;;6.00;5.00;;;;;18.38;56.32;101658.00;5017394;28;45321;-76
2022/06/10 04:08:21;;;;;;;;;8.00;4.33;;;;;18.65;56.03;101706.13;5016926;28;45346;-77
2022/06/10 04:10:47;;;;;;;;;5.00;5.00;;;;;17.63;56.10;101534.56;5032665;28;47595;-76
2022/06/10 04:13:12;;;;;;;;;4.00;4.00;;;;;18.34;56.21;101646.75;5025677;28;45480;-76
2022/06/10 04:15:38;;;;;;;;;7.00;7.00;;;;;18.67;56.19;101700.56;5018299;28;45789;-76
2022/06/10 04:18:07;;;;;;;;;5.00;5.00;;;;;18.29;56.06;101638.38;5019875;28;45353;-76
2022/06/10 04:20:36;;;;;;;;;6.33;5.33;;;;;18.06;56.36;101594.34;5018705;28;45617;-76
2022/06/10 04:23:02;;;;;;;;;5.33;5.00;;;;;18.60;55.90;101680.66;5039460;28;46144;-76
2022/06/10 04:25:29;;;;;;;;;4.00;4.00;;;;;17.99;55.79;101580.72;5036169;28;45282;-75
2022/06/10 04:27:55;;;;;;;;;6.00;6.00;;;;;18.82;55.71;101725.72;5019121;28;45355;-76
2022/06/10 04:30:30;;;;;;;;;5.00;4.33;;;;;18.87;55.85;101734.16;5029475;28;48491;-77
2022/06/10 04:32:57;;;;;;;;;4.33;4.33;;;;;18.89;56.06;101732.13;5033332;28;45226;-77
2022/06/10 04:35:24;;;;;;;;;4.33;4.33;;;;;18.32;55.97;101654.16;5037725;28;45458;-74
2022/06/10 04:37:51;;;;;;;;;7.33;5.67;;;;;17.96;55.92;101582.94;5036223;28;45295;-74
2022/06/10 04:40:21;;;;;;;;;5.00;4.00;;;;;18.64;56.12;101706.28;5023592;28;46414;-76
2022/06/10 04:42:48;;;;;;;;;6.00;6.00;;;;;18.82;56.18;101741.91;5029813;28;45771;-75
2022/06/10 04:45:16;;;;;;;;;9.33;5.33;;;;;18.67;56.36;101722.09;5036985;28;45297;-77
2022/06/10 04:47:41;;;;;;;;;5.00;5.00;;;;;18.71;56.10;101735.03;5037018;28;45390;-76
2022/06/10 04:50:08;;;;;;;;;5.00;5.00;;;;;18.72;56.27;101725.09;5033801;28;47740;-76
2022/06/10 04:52:34;;;;;;;;;4.00;4.00;;;;;18.37;56.30;101676.03;5031135;28;45285;-77
2022/06/10 04:55:04;;;;;;;;;5.00;3.00;;;;;18.45;56.34;101670.63;5026567;28;45286;-75
2022/06/10 04:57:30;;;;;;;;;4.00;4.00;;;;;18.88;56.43;101730.44;5028071;28;45317;-76
2022/06/10 04:59:55;;;;;;;;;5.00;5.00;;;;;18.23;56.08;101622.91;5018841;28;47430;-78
2022/06/10 05:02:21;;;;;;;;;5.00;5.00;;;;;18.59;56.35;101687.06;5021700;28;45685;-76
2022/06/10 05:04:47;;;;;;;;;4.33;4.33;;;;;18.69;56.42;101688.59;5017627;28;45499;-76
2022/06/10 05:07:12;;;;;;;;;8.33;5.00;;;;;18.95;56.17;101736.81;5029660;28;45576;-76
2022/06/10 05:09:38;;;;;;;;;5.00;5.00;;;;;18.19;55.99;101600.03;5053037;28;47517;-75
2022/06/10 05:12:04;;;;;;;;;6.00;5.00;;;;;18.54;56.16;101653.41;5033948;28;45412;-76
2022/06/10 05:14:29;;;;;;;;;3.00;3.00;;;;;19.05;56.33;101732.06;5036316;28;45306;-75
2022/06/10 05:16:56;;;;;;;;;5.67;4.00;;;;;18.82;56.12;101677.22;5039442;28;45610;-76
2022/06/10 05:19:23;;;;;;;;;8.67;5.00;;;;;18.80;56.04;101690.88;5037489;28;46436;-76
2022/06/10 05:21:48;;;;;;;;;3.33;3.33;;;;;17.22;56.15;101429.81;5035374;28;45603;-75
2022/06/10 05:24:14;;;;;;;;;4.00;4.00;;;;;18.89;56.12;101688.16;5037715;28;45468;-79
2022/06/10 05:26:40;;;;;;;;;3.33;3.33;;;;;19.03;55.99;101690.97;5021747;28;45394;-75
2022/06/10 05:29:05;;;;;;;;;6.67;5.00;;;;;18.96;55.85;101687.28;5019599;28;45524;-77
2022/06/10 05:31:31;;;;;;;;;4.67;4.67;;;;;18.95;55.76;101677.50;5017204;28;45486;-77
2022/06/10 05:36:40;;;;;;;;;4.33;4.33;;;;;19.14;55.83;101697.81;5025988;28;45422;-79
2022/06/10 05:39:06;;;;;;;;;4.00;4.00;;;;;19.15;55.88;101708.41;5046123;28;47150;-77
2022/06/10 05:44:15;;;;;;;;;4.67;4.67;;;;;19.42;55.98;101722.41;5020579;28;45522;-76
2022/06/10 05:46:41;;;;;;;;;6.00;5.00;;;;;19.53;55.55;101732.78;5034285;28;45560;-77
2022/06/10 05:49:07;;;;;;;;;5.33;4.33;;;;;19.83;55.43;101741.91;5031826;28;47801;-77
2022/06/10 05:51:32;;;;;;;;;4.33;3.67;;;;;20.26;54.45;101723.31;5035679;28;45665;-77
2022/06/10 05:53:58;;;;;;;;;5.33;5.33;;;;;20.81;52.69;101749.06;5033606;28;45417;-77
2022/06/10 05:56:23;;;;;;;;;5.33;5.33;;;;;20.25;52.49;101633.34;5021131;28;45493;-75
2022/06/10 05:58:48;;;;;;;;;6.00;4.00;;;;;20.17;52.38;101608.28;5025374;28;45680;-76
2022/06/10 06:01:14;;;;;;;;;4.00;4.00;;;;;20.69;51.87;101650.59;5028439;28;45599;-76
2022/06/10 06:03:39;;;;;;;;;3.33;3.33;;;;;21.90;50.41;101742.69;5046785;28;45240;-76
2022/06/10 06:06:05;;;;;;;;;5.33;5.00;;;;;22.80;48.65;101757.34;5039683;28;46244;-78
2022/06/10 06:08:30;;;;;;;;;4.00;4.00;;;;;23.27;46.94;101714.00;5043475;28;48310;-77
2022/06/10 06:10:56;;;;;;;;;6.00;4.00;;;;;24.30;45.37;101754.50;5033214;28;45238;-78
2022/06/10 06:13:21;;;;;;;;;3.67;2.00;;;;;24.58;43.91;101678.94;5039396;28;45451;-76
2022/06/10 06:15:47;;;;;;;;;3.33;3.33;;;;;25.88;42.00;101762.13;5045824;28;45315;-77
2022/06/10 06:18:13;;;;;;;;;3.67;3.67;;;;;26.58;40.61;101776.41;5039859;28;45615;-76
2022/06/10 06:20:38;;;;;;;;;2.67;2.00;;;;;26.79;39.54;101704.22;5023635;28;46338;-75
2022/06/10 06:23:05;;;;;;;;;4.33;3.00;;;;;27.55;38.18;101717.31;5039485;28;45384;-80
2022/06/10 06:25:31;;;;;;;;;6.00;3.00;;;;;27.70;37.22;101656.78;5037217;28;45386;-76
2022/06/10 06:27:57;;;;;;;;;5.33;3.00;;;;;28.89;36.38;101776.94;5031565;28;47200;-77
2022/06/10 06:30:32;;;;;;;;;3.67;3.67;;;;;28.91;35.12;101709.91;5031179;28;45569;-75
2022/06/10 06:33:01;;;;;;;;;4.00;4.00;;;;;29.66;34.76;101744.53;5040215;28;45423;-76
2022/06/10 06:35:34;;;;;;;;;3.00;2.00;;;;;30.30;33.66;101766.19;5022133;28;45474;-77
2022/06/10 06:38:01;;;;;;;;;13.67;13.67;;;;;30.33;32.82;101694.34;5032838;28;45512;-77
2022/06/10 06:40:26;;;;;;;;;1.67;1.67;;;;;31.21;31.78;101774.91;5028464;28;45544;-75
2022/06/10 06:42:52;;;;;;;;;2.67;2.67;;;;;31.50;31.41;101770.03;5035372;28;45512;-76
2022/06/10 06:45:20;;;;;;;;;1.00;1.00;;;;;31.63;30.89;101742.09;5026587;28;45504;-78
2022/06/10 06:47:46;;;;;;;;;2.33;2.33;;;;;31.88;30.31;101730.56;5034111;28;46316;-74
2022/06/10 06:50:14;;;;;;;;;6.00;6.00;;;;;32.44;30.40;101766.75;5032901;28;45435;-80
2022/06/10 06:52:41;;;;;;;;;5.00;5.00;;;;;32.16;29.73;101679.84;5019346;28;45330;-74
2022/06/10 06:55:07;;;;;;;;;3.67;3.00;;;;;32.85;29.05;101741.16;5029470;28;45598;-77
2022/06/10 06:57:32;;;;;;;;;2.00;1.00;;;;;33.08;28.03;101741.78;5037034;28;45221;-76
2022/06/10 07:00:06;;;;;;;;;1.00;1.00;;;;;33.11;27.76;101708.16;5026271;28;45635;-77
2022/06/10 07:02:32;;;;;;;;;2.00;2.00;;;;;33.52;27.18;101751.28;5031888;28;46095;-76
2022/06/10 07:04:58;;;;;;;;;1.33;1.33;;;;;33.70;27.34;101751.88;5017849;28;45514;-74
2022/06/10 07:07:23;;;;;;;;;3.00;3.00;;;;;33.83;26.99;101738.34;5034411;28;46312;-78
2022/06/10 07:09:48;;;;;;;;;3.00;3.00;;;;;34.15;26.50;101760.16;5018058;28;46144;-77
2022/06/10 07:12:14;;;;;;;;;1.67;0.67;;;;;34.00;26.22;101717.97;5018796;28;45206;-76
2022/06/10 07:14:39;;;;;;;;;1.67;1.67;;;;;34.27;26.48;101742.50;5020905;28;45453;-74
2022/06/10 07:17:05;;;;;;;;;1.33;0.00;;;;;34.52;25.62;101769.25;5037710;28;47616;-79
2022/06/10 07:19:32;;;;;;;;;3.00;3.00;;;;;34.28;26.30;101728.41;5038378;28;45258;-75
2022/06/10 07:21:58;;;;;;;;;4.00;3.00;;;;;34.57;25.65;101753.50;5022371;28;45466;-76
2022/06/10 07:24:23;;;;;;;;;2.00;2.00;;;;;34.70;25.34;101757.63;5030789;28;45509;-78
2022/06/10 07:26:50;;;;;;;;;1.00;1.00;;;;;34.66;25.17;101754.59;5023629;28;46463;-77
2022/06/10 07:29:16;;;;;;;;;1.33;1.00;;;;;34.42;25.47;101710.19;5024609;28;45290;-78
2022/06/10 07:31:41;;;;;;;;;1.33;0.33;;;;;33.97;25.20;101653.13;5038565;28;45198;-77
2022/06/10 07:34:08;;;;;;;;;1.00;0.00;;;;;34.18;25.04;101709.94;5026683;28;45415;-76
2022/06/10 07:36:34;;;;;;;;;3.00;1.33;;;;;34.22;25.47;101756.28;5041634;28;46272;-78
2022/06/10 07:39:00;;;;;;;;;4.33;4.00;;;;;33.71;25.56;101720.44;5028917;28;46262;-76
2022/06/10 07:44:09;;;;;;;;;0.00;0.00;;;;;32.90;26.76;101688.81;5033861;28;45434;-74
2022/06/10 07:46:35;;;;;;;;;4.33;2.33;;;;;33.33;26.68;101785.16;5024748;28;45649;-77
2022/06/10 07:49:00;;;;;;;;;1.00;1.00;;;;;32.82;27.06;101743.59;5025973;28;45451;-78
2022/06/10 07:51:26;;;;;;;;;5.67;3.67;;;;;32.64;27.12;101784.25;5029958;28;45483;-74
2022/06/10 07:53:52;;;;;;;;;1.00;1.00;;;;;32.08;27.64;101742.56;5044372;28;45429;-73
2022/06/10 07:56:20;;;;;;;;;2.00;1.33;;;;;32.07;28.36;101779.41;5042200;28;48171;-79
2022/06/10 07:58:47;;;;;;;;;1.67;1.00;;;;;30.89;28.37;101646.53;5028765;28;45331;-75
2022/06/10 08:01:13;;;;;;;;;1.67;1.00;;;;;30.79;29.64;101679.34;5031534;28;45240;-78
2022/06/10 08:03:38;;;;;;;;;1.33;1.33;;;;;31.01;29.56;101753.47;5046641;28;45564;-76
2022/06/10 08:06:04;;;;;;;;;11.00;9.67;;;;;30.90;30.62;101763.53;5031046;28;45845;-77
2022/06/10 08:08:29;;;;;;;;;5.67;4.67;;;;;29.89;31.03;101634.72;5024014;28;45454;-76
2022/06/10 08:10:56;;;;;;;;;5.00;5.00;;;;;29.85;30.66;101662.91;5025921;28;45584;-77
2022/06/10 08:13:22;;;;;;;;;2.00;2.00;;;;;29.95;30.90;101710.50;5030721;28;45571;-75
2022/06/10 08:15:48;;;;;;;;;1.00;1.00;;;;;30.18;30.40;101769.00;5021771;28;46405;-75
2022/06/10 08:18:16;;;;;;;;;3.00;1.67;;;;;29.80;30.99;101734.91;5039367;28;45858;-73
2022/06/10 08:23:28;;;;;;;;;1.33;1.33;;;;;28.97;31.81;101645.97;5019697;28;45334;-76
2022/06/10 08:25:55;;;;;;;;;3.00;3.00;;;;;29.65;31.82;101773.84;5035971;28;45814;-73
2022/06/10 08:28:22;;;;;;;;;0.00;0.00;;;;;29.60;31.79;101781.13;5022261;28;45419;-74
2022/06/10 08:30:48;;;;;;;;;1.33;1.33;;;;;28.42;31.26;101588.19;5021500;28;45590;-75
2022/06/10 08:33:13;;;;;;;;;2.00;1.00;;;;;28.73;31.51;101672.56;5024222;28;45495;-79
2022/06/10 08:35:40;;;;;;;;;1.00;1.00;;;;;29.18;31.10;101756.72;5037803;28;48695;-76
2022/06/10 08:38:09;;;;;;;;;0.00;0.00;;;;;28.33;31.29;101623.28;5029674;28;45271;-75
2022/06/10 08:40:52;;;;;;;;;2.00;2.00;;;;;28.57;32.12;101684.25;5024527;28;45547;-78
2022/06/10 08:43:50;;;;;;;;;2.00;0.00;;;;;28.61;31.73;101704.59;5027342;28;45297;-77
2022/06/10 08:46:41;;;;;;;;;3.00;1.00;;;;;29.01;32.37;101766.78;5018391;28;46498;-76
2022/06/10 08:49:35;;;;;;;;;2.67;2.00;;;;;28.93;32.30;101756.22;5025784;28;45341;-76
2022/06/10 08:52:39;;;;;;;;;1.67;1.67;;;;;28.86;32.32;101758.25;5017030;28;45705;-77
2022/06/10 08:55:29;;;;;;;;;3.00;1.00;;;;;28.81;32.39;101755.38;5041919;28;45643;-78
2022/06/10 08:57:58;;;;;;;;;1.67;1.67;;;;;28.41;32.35;101706.88;5026472;28;45396;-78
2022/06/10 09:00:28;;;;;;;;;2.00;2.00;;;;;28.26;33.33;101682.75;5038029;28;45601;-78
2022/06/10 09:03:16;;;;;;;;;2.00;2.00;;;;;28.60;32.78;101748.59;5021277;28;45409;-78
2022/06/10 09:05:55;;;;;;;;;2.33;2.33;;;;;28.04;32.98;101673.47;5024901;28;45594;-77
2022/06/10 09:08:24;;;;;;;;;1.67;0.67;;;;;28.06;32.78;101672.16;5040469;28;46504;-79
2022/06/10 09:10:57;;;;;;;;;1.33;1.33;;;;;28.46;32.28;101764.47;5036570;28;45428;-77
2022/06/10 09:13:26;;;;;;;;;1.00;1.00;;;;;28.39;31.98;101760.97;5022599;28;45563;-77
2022/06/10 09:16:08;;;;;;;;;0.33;0.33;;;;;28.25;31.93;101754.06;5033237;28;45506;-74
2022/06/10 09:18:54;;;;;;;;;0.67;0.67;;;;;28.15;32.57;101747.28;5037652;28;46175;-78
2022/06/10 09:21:40;;;;;;;;;0.00;0.00;;;;;28.16;32.29;101748.94;5029231;28;45621;-77
2022/06/10 09:24:33;;;;;;;;;0.00;0.00;;;;;27.14;32.13;101586.22;5031826;28;45522;-77
2022/06/10 09:27:25;;;;;;;;;0.00;0.00;;;;;27.51;32.16;101698.88;5030490;28;45538;-75
2022/06/10 09:29:51;;;;;;;;;0.00;0.00;;;;;27.73;32.87;101748.38;5028887;28;47806;-76
2022/06/10 09:32:28;;;;;;;;;4.00;4.00;;;;;27.20;32.76;101656.25;5034907;28;45336;-78
2022/06/10 09:35:06;;;;;;;;;0.00;0.00;;;;;27.77;32.71;101753.16;5037304;28;45896;-76
2022/06/10 09:38:01;;;;;;;;;1.67;1.00;;;;;27.74;32.49;101745.41;5035014;28;45504;-75
2022/06/10 09:40:37;;;;;;;;;3.67;3.33;;;;;27.55;33.09;101722.75;5027049;28;45737;-78
2022/06/10 09:43:09;;;;;;;;;0.00;0.00;;;;;27.76;33.07;101748.75;5027982;28;45848;-76
2022/06/10 09:46:01;;;;;;;;;0.00;0.00;;;;;27.72;33.48;101757.66;5028669;28;45384;-76
2022/06/10 09:48:43;;;;;;;;;2.33;1.00;;;;;27.35;33.43;101697.63;5032364;28;45406;-77
2022/06/10 09:51:45;;;;;;;;;2.00;1.00;;;;;27.70;33.68;101754.31;5017130;28;45522;-78
2022/06/10 09:54:17;;;;;;;;;1.00;1.00;;;;;26.85;33.95;101626.94;5026193;28;45471;-81
2022/06/10 09:57:25;;;;;;;;;1.33;1.33;;;;;27.64;34.21;101758.00;5028501;28;45571;-75
2022/06/10 10:00:04;;;;;;;;;2.00;1.67;;;;;27.06;33.74;101676.66;5015189;28;45649;-76
2022/06/10 10:02:51;;;;;;;;;0.67;0.33;;;;;27.38;33.94;101750.97;5030613;28;46448;-79
2022/06/10 10:05:36;;;;;;;;;2.33;2.00;;;;;27.41;34.45;101761.41;5029664;28;45556;-75
2022/06/10 10:08:23;;;;;;;;;2.00;1.00;;;;;27.36;34.56;101766.75;5043865;28;45369;-79
2022/06/10 10:10:55;;;;;;;;;1.33;1.33;;;;;27.27;34.23;101760.78;5030022;28;45549;-79
2022/06/10 10:13:39;;;;;;;;;1.00;1.00;;;;;27.12;34.91;101758.44;5023217;28;45712;-76
2022/06/10 10:16:25;;;;;;;;;1.33;1.00;;;;;27.17;35.34;101765.94;5025203;28;45495;-75
2022/06/10 10:18:59;;;;;;;;;1.00;1.00;;;;;27.16;35.27;101759.63;5037053;28;45479;-76
2022/06/10 10:21:41;;;;;;;;;2.00;1.00;;;;;27.10;35.31;101763.28;5024735;28;45646;-77
2022/06/10 10:24:15;;;;;;;;;1.00;1.00;;;;;27.07;35.42;101762.94;5032141;28;46530;-78
2022/06/10 10:26:43;;;;;;;;;2.00;2.00;;;;;26.95;35.36;101752.72;5022684;28;45586;-80
2022/06/10 10:29:33;;;;;;;;;3.67;3.00;;;;;26.83;35.92;101748.25;5023909;28;45601;-79
2022/06/10 10:32:18;;;;;;;;;1.67;1.67;;;;;26.80;36.12;101751.44;5030882;28;45611;-75
2022/06/10 10:34:50;;;;;;;;;2.00;2.00;;;;;26.87;36.01;101763.13;5035984;28;47703;-76
2022/06/10 10:37:27;;;;;;;;;2.00;1.67;;;;;26.13;36.48;101649.53;5021007;28;45195;-74
2022/06/10 10:39:59;;;;;;;;;2.00;0.33;;;;;26.16;36.72;101658.09;5035772;28;45260;-75
2022/06/10 10:42:33;;;;;;;;;1.00;1.00;;;;;26.60;36.78;101732.56;5020507;28;45404;-74
2022/06/10 10:45:15;;;;;;;;;3.33;2.00;;;;;26.42;36.73;101705.25;5022980;28;45474;-74
2022/06/10 10:47:49;;;;;;;;;2.00;2.00;;;;;26.74;36.77;101763.25;5022602;28;45748;-76
2022/06/10 10:50:20;;;;;;;;;6.00;5.33;;;;;26.61;37.16;101739.69;5019763;28;45436;-75
2022/06/10 10:52:48;;;;;;;;;2.00;2.00;;;;;25.73;37.48;101601.72;5018084;28;45449;-77
2022/06/10 10:55:13;;;;;;;;;1.00;1.00;;;;;26.75;37.41;101767.66;5000000;28;46075;-77
2022/06/10 10:58:13;;;;;;;;;1.67;1.00;;;;;26.75;37.42;101760.31;5008000;28;45574;-77
2022/06/10 11:00:45;;;;;;;;;2.67;2.00;;;;;26.71;37.37;101766.44;5023695;28;45519;-78
2022/06/10 11:03:25;;;;;;;;;1.00;1.00;;;;;25.90;37.80;101639.28;5010899;28;45605;-76
2022/06/10 11:05:52;;;;;;;;;3.00;2.00;;;;;26.04;38.10;101670.81;4992792;28;46510;-74
2022/06/10 11:08:21;;;;;;;;;1.67;1.67;;;;;26.62;38.23;101753.09;5001667;28;45388;-79
2022/06/10 11:11:08;;;;;;;;;1.00;1.00;;;;;26.25;38.55;101702.28;4990211;28;45345;-76
2022/06/10 11:13:44;;;;;;;;;3.00;2.00;;;;;26.63;37.97;101759.38;5013388;28;45472;-76
2022/06/10 11:16:27;;;;;;;;;2.00;2.00;;;;;26.60;38.30;101757.94;4995287;28;45747;-77
2022/06/10 11:19:10;;;;;;;;;2.00;2.00;;;;;25.79;37.98;101632.66;4982810;28;46460;-76
2022/06/10 11:22:01;;;;;;;;;5.00;5.00;;;;;26.12;38.39;101708.69;4992151;28;45676;-81
2022/06/10 11:24:35;;;;;;;;;2.00;1.00;;;;;26.40;38.17;101753.75;4999213;28;45434;-75
2022/06/10 11:27:24;;;;;;;;;1.00;1.00;;;;;25.81;38.53;101665.97;5011890;28;45502;-74
2022/06/10 11:30:13;;;;;;;;;1.33;1.33;;;;;26.36;38.54;101767.00;4992111;28;45371;-74
2022/06/10 11:33:16;;;;;;;;;2.00;2.00;;;;;26.25;38.78;101768.53;5021191;28;45488;-76
2022/06/10 11:36:02;;;;;;;;;2.00;2.00;;;;;25.37;38.70;101617.91;4990050;28;45530;-75
2022/06/10 11:38:30;;;;;;;;;1.67;1.67;;;;;25.45;38.39;101633.97;4986997;28;47340;-83
2022/06/10 11:40:59;;;;;;;;;2.75;1.00;;;;;25.84;38.24;101700.97;4999867;28;45495;-78
2022/06/10 11:43:29;;;;;;;;;1.67;1.00;;;;;26.05;40.51;101740.63;4999354;28;45564;-74
2022/06/10 11:46:02;;;;;;;;;2.00;2.00;;;;;26.07;40.24;101750.22;4994916;28;45634;-77
2022/06/10 11:48:49;;;;;;;;;5.00;3.00;;;;;26.11;40.04;101749.78;5042649;28;47719;-76
2022/06/10 11:51:18;;;;;;;;;2.00;2.00;;;;;26.04;39.65;101750.69;5026674;28;45419;-75
2022/06/10 11:54:09;;;;;;;;;2.00;2.00;;;;;25.93;39.93;101736.94;5036248;28;45238;-74
2022/06/10 12:00:04;;;;;;;;;1.67;1.67;;;;;25.87;39.80;101738.66;5034693;28;45502;-74
2022/06/10 12:02:46;;;;;;;;;1.00;1.00;;;;;25.64;40.07;101713.88;5029684;28;45302;-76
2022/06/10 12:05:30;;;;;;;;;2.67;1.67;;;;;25.62;40.13;101735.84;5032016;28;45543;-74
2022/06/10 12:08:24;;;;;;;;;1.33;0.33;;;;;25.54;40.66;101738.84;5038740;28;45293;-77
2022/06/10 12:11:02;;;;;;;;;1.00;1.00;;;;;25.55;41.05;101740.50;5037984;28;48105;-75
2022/06/10 12:13:34;;;;;;;;;1.33;1.33;;;;;25.27;40.92;101691.06;5037200;28;45869;-73